Fylingdales, United Kingdom
Current Conditions -  °F | °C
As of 7:50 AM on Thursday 18 Dec 2014 (Local Time) from EGXZ Reporting Station
Broken Clouds Broken Clouds  
Wind Chill: 52°   Ceiling: 1700
Heat Index: 52°   Visibility: 6mi
Dew Point: 52°   Wind: 14mph
Humidity: 100%   Direction: 220°SW
Pressure: 29.53"   Gusts: NA
Location:  54.37°N, 0.67°W
Report Text: EGXZ 180750Z AUTO 22012KT 9999 BKN017/// 11/11 Q1000
Loading
Personal Weather Stations






























Interactive Weather Map New forecast layout! Learn more

10-Day Weather Forecast

Advertisements
Track Severe Weather on mobile